createdAt,value
2018-04-26T00:00:45.020Z,1.30
2018-04-26T00:03:16.339Z,1.20
2018-04-26T00:05:47.885Z,1.23
2018-04-26T00:08:19.337Z,1.30
2018-04-26T00:10:50.817Z,1.10
2018-04-26T00:13:22.909Z,1.07
2018-04-26T00:15:55.024Z,1.43
2018-04-26T00:18:26.418Z,1.53
2018-04-26T00:20:57.944Z,1.33
2018-04-26T00:23:28.958Z,1.50
2018-04-26T00:26:00.422Z,1.23
2018-04-26T00:28:31.851Z,1.63
2018-04-26T00:31:03.977Z,1.40
2018-04-26T00:33:35.360Z,1.47
2018-04-26T00:36:07.502Z,1.60
2018-04-26T00:38:38.848Z,1.73
2018-04-26T00:47:29.288Z,1.57
2018-04-26T00:50:01.433Z,1.50
2018-04-26T00:52:33.008Z,1.30
2018-04-26T00:55:04.359Z,1.47
2018-04-26T00:57:35.715Z,1.10
2018-04-26T01:00:07.134Z,1.07
2018-04-26T01:02:39.444Z,1.73
2018-04-26T01:05:11.553Z,1.23
2018-04-26T01:07:42.946Z,1.40
2018-04-26T01:10:15.945Z,1.53
2018-04-26T01:12:48.415Z,1.53
2018-04-26T01:15:19.751Z,1.40
2018-04-26T01:17:53.210Z,1.37
2018-04-26T01:20:25.988Z,1.00
2018-04-26T01:22:58.515Z,1.20
2018-04-26T01:25:30.230Z,0.93
2018-04-26T01:28:01.602Z,1.40
2018-04-26T01:30:33.015Z,1.43
2018-04-26T01:33:04.351Z,1.30
2018-04-26T01:35:36.460Z,1.13
2018-04-26T01:38:07.879Z,1.20
2018-04-26T01:40:40.015Z,1.77
2018-04-26T01:43:12.201Z,1.07
2018-04-26T01:45:43.547Z,1.50
2018-04-26T01:48:14.909Z,1.20
2018-04-26T01:50:46.278Z,1.13
2018-04-26T01:53:18.011Z,1.17
2018-04-26T01:55:50.125Z,1.27
2018-04-26T01:58:21.498Z,1.40
2018-04-26T02:00:52.913Z,1.33
2018-04-26T02:03:24.328Z,1.53
2018-04-26T02:05:57.213Z,1.70
2018-04-26T02:08:28.586Z,1.37
2018-04-26T02:11:00.007Z,1.33
2018-04-26T02:13:32.311Z,1.70
2018-04-26T02:16:03.679Z,1.97
2018-04-26T02:18:34.367Z,1.90
2018-04-26T02:21:05.748Z,1.87
2018-04-26T02:23:37.613Z,1.40
2018-04-26T02:26:09.723Z,1.93
2018-04-26T02:28:41.045Z,2.23
2018-04-26T02:31:12.418Z,2.40
2018-04-26T02:33:43.791Z,2.37
2018-04-26T02:36:15.913Z,1.77
2018-04-26T02:38:47.371Z,1.53
2018-04-26T02:41:18.903Z,2.30
2018-04-26T02:43:50.400Z,2.27
2018-04-26T02:46:21.906Z,2.70
2018-04-26T02:48:53.259Z,2.43
2018-04-26T02:51:24.522Z,2.17
2018-04-26T02:53:55.899Z,2.40
2018-04-26T02:56:27.443Z,1.60
2018-04-26T02:58:58.713Z,1.80
2018-04-26T03:01:29.922Z,1.90
2018-04-26T03:04:01.111Z,1.70
2018-04-26T03:06:32.293Z,1.70
2018-04-26T03:09:03.300Z,1.80
2018-04-26T03:11:34.514Z,1.70
2018-04-26T03:14:05.860Z,1.70
2018-04-26T03:16:38.022Z,2.13
2018-04-26T03:19:09.279Z,2.30
2018-04-26T03:21:40.719Z,2.27
2018-04-26T03:24:12.042Z,2.17
2018-04-26T03:26:43.380Z,2.10
2018-04-26T03:29:15.145Z,2.07
2018-04-26T03:31:47.270Z,2.30
2018-04-26T03:34:18.385Z,2.20
2018-04-26T03:36:49.732Z,2.00
2018-04-26T03:39:21.218Z,2.33
2018-04-26T03:41:52.560Z,2.70
2018-04-26T03:44:23.907Z,2.60
2018-04-26T03:46:55.401Z,2.57
2018-04-26T03:49:26.755Z,2.67
2018-04-26T03:51:59.501Z,2.70
2018-04-26T03:54:30.832Z,2.40
2018-04-26T03:57:02.174Z,3.27
2018-04-26T03:59:50.017Z,3.30
2018-04-26T04:05:46.841Z,3.13
2018-04-26T04:08:18.955Z,3.03
2018-04-26T04:10:50.270Z,3.43
2018-04-26T04:13:22.546Z,3.60
2018-04-26T04:15:54.965Z,2.63
2018-04-26T04:18:27.866Z,2.47
2018-04-26T04:20:59.253Z,2.63
2018-04-26T04:23:30.918Z,3.30
2018-04-26T04:26:03.016Z,3.37
2018-04-26T04:28:34.413Z,2.80
2018-04-26T04:31:06.524Z,2.53
2018-04-26T04:33:39.438Z,2.33
2018-04-26T04:36:10.807Z,3.60
2018-04-26T04:38:42.937Z,2.37
2018-04-26T04:41:14.393Z,3.10
2018-04-26T04:43:46.627Z,2.73
2018-04-26T04:46:18.735Z,2.93
2018-04-26T04:48:50.058Z,2.60
2018-04-26T04:51:22.155Z,2.93
2018-04-26T04:53:53.465Z,2.43
2018-04-26T04:56:25.861Z,2.47
2018-04-26T04:58:57.218Z,3.07
2018-04-26T05:01:28.641Z,2.97
2018-04-26T05:04:00.006Z,2.40
2018-04-26T05:06:31.536Z,2.47
2018-04-26T05:09:03.419Z,2.80
2018-04-26T05:11:34.805Z,2.70
2018-04-26T05:14:05.873Z,2.20
2018-04-26T05:16:38.007Z,3.17
2018-04-26T05:19:09.530Z,2.30
2018-04-26T05:21:40.859Z,2.50
2018-04-26T05:24:12.249Z,2.80
2018-04-26T05:26:43.634Z,2.60
2018-04-26T05:29:15.783Z,2.63
2018-04-26T05:31:47.154Z,2.50
2018-04-26T05:34:19.305Z,2.83
2018-04-26T05:36:51.617Z,2.40
2018-04-26T05:39:23.821Z,2.07
2018-04-26T05:41:55.143Z,1.73
2018-04-26T05:44:26.262Z,3.33
2018-04-26T05:46:57.626Z,1.73
2018-04-26T05:49:29.771Z,1.60
2018-04-26T05:52:01.318Z,1.70
2018-04-26T05:54:32.780Z,1.30
2018-04-26T05:57:04.454Z,1.30
2018-04-26T05:59:36.549Z,1.13
2018-04-26T06:02:08.038Z,1.30
2018-04-26T06:04:39.424Z,1.57
2018-04-26T06:07:11.765Z,1.33
2018-04-26T06:09:43.452Z,1.87
2018-04-26T06:12:15.561Z,1.20
2018-04-26T06:14:46.812Z,1.27
2018-04-26T06:17:18.208Z,1.00
2018-04-26T06:19:49.903Z,1.10
2018-04-26T06:22:21.247Z,1.00
2018-04-26T06:24:52.617Z,1.17
2018-04-26T06:27:23.955Z,1.00
2018-04-26T06:29:55.324Z,1.20
2018-04-26T06:32:27.195Z,1.13
2018-04-26T06:34:58.687Z,1.47
2018-04-26T06:37:30.925Z,1.17
2018-04-26T06:40:02.343Z,1.50
2018-04-26T06:42:33.698Z,1.77
2018-04-26T06:45:05.484Z,1.73
2018-04-26T06:47:37.032Z,1.50
2018-04-26T06:50:08.360Z,1.83
2018-04-26T06:52:39.897Z,1.40
2018-04-26T06:55:12.075Z,2.67
2018-04-26T06:57:44.216Z,1.67
2018-04-26T07:00:16.422Z,1.90
2018-04-26T07:02:47.784Z,2.27
2018-04-26T07:05:19.153Z,2.50
2018-04-26T07:07:50.534Z,2.23
2018-04-26T07:10:22.204Z,2.50
2018-04-26T07:12:54.217Z,2.53
2018-04-26T07:15:25.567Z,2.97
2018-04-26T07:17:57.071Z,3.37
2018-04-26T07:20:28.585Z,3.80
2018-04-26T07:22:59.965Z,3.50
2018-04-26T07:25:31.287Z,2.93
2018-04-26T07:28:02.706Z,4.13
2018-04-26T07:30:34.368Z,4.07
2018-04-26T07:33:05.385Z,3.80
2018-04-26T07:35:36.769Z,4.00
2018-04-26T07:38:08.376Z,4.20
2018-04-26T07:40:40.756Z,4.53
2018-04-26T07:43:12.907Z,4.80
2018-04-26T07:45:44.281Z,4.80
2018-04-26T07:48:15.936Z,4.97
2018-04-26T07:50:47.435Z,5.87
2018-04-26T07:53:18.831Z,5.67
2018-04-26T07:55:50.205Z,5.83
2018-04-26T07:58:21.610Z,4.90
2018-04-26T08:00:53.233Z,5.83
2018-04-26T08:03:24.980Z,5.53
2018-04-26T08:05:56.360Z,5.07
2018-04-26T08:08:27.749Z,5.20
2018-04-26T08:10:59.641Z,6.10
2018-04-26T08:13:31.485Z,5.20
2018-04-26T08:16:03.832Z,5.00
2018-04-26T08:18:35.187Z,6.20
2018-04-26T08:21:07.572Z,5.60
2018-04-26T08:23:38.874Z,4.87
2018-04-26T08:26:10.331Z,4.63
2018-04-26T08:28:41.957Z,4.07
2018-04-26T08:31:13.414Z,4.93
2018-04-26T08:33:45.281Z,4.80
2018-04-26T08:36:16.661Z,5.00
2018-04-26T08:38:48.148Z,4.90
2018-04-26T08:41:19.442Z,5.43
2018-04-26T08:43:50.902Z,4.73
2018-04-26T08:46:23.837Z,5.40
2018-04-26T08:48:55.194Z,5.23
2018-04-26T08:51:26.644Z,5.50
2018-04-26T08:53:58.528Z,4.87
2018-04-26T08:56:30.569Z,5.03
2018-04-26T08:59:01.963Z,5.30
2018-04-26T09:01:33.349Z,4.33
2018-04-26T09:04:05.515Z,5.07
2018-04-26T09:06:36.941Z,5.00
2018-04-26T09:09:09.506Z,6.17
2018-04-26T09:11:40.921Z,5.93
2018-04-26T09:14:13.470Z,4.60
2018-04-26T09:16:44.844Z,4.83
2018-04-26T09:19:16.255Z,4.67
2018-04-26T09:21:47.650Z,4.67
2018-04-26T09:24:20.092Z,4.60
2018-04-26T09:26:51.592Z,3.97
2018-04-26T09:29:23.038Z,4.27
2018-04-26T09:31:54.414Z,4.50
2018-04-26T09:34:25.817Z,4.20
2018-04-26T09:36:57.385Z,4.60
2018-04-26T09:39:28.976Z,3.77
2018-04-26T09:42:00.612Z,3.70
2018-04-26T09:44:32.045Z,3.57
2018-04-26T09:47:04.126Z,3.67
2018-04-26T09:49:35.528Z,3.53
2018-04-26T09:52:07.246Z,3.30
2018-04-26T09:54:38.658Z,3.37
2018-04-26T09:57:10.710Z,3.37
2018-04-26T09:59:42.477Z,3.53
2018-04-26T10:02:14.391Z,3.40
2018-04-26T10:04:51.614Z,3.77
2018-04-26T10:07:23.042Z,4.33
2018-04-26T10:09:54.459Z,3.00
2018-04-26T10:12:25.824Z,3.73
2018-04-26T10:14:57.246Z,4.20
2018-04-26T10:17:29.398Z,3.47
2018-04-26T10:20:00.741Z,3.93
2018-04-26T10:22:32.585Z,3.57
2018-04-26T10:25:04.975Z,3.73
2018-04-26T10:27:37.249Z,4.30
2018-04-26T10:30:08.863Z,3.80
2018-04-26T10:32:40.227Z,3.40
2018-04-26T10:35:11.799Z,3.13
2018-04-26T10:37:43.144Z,3.40
2018-04-26T10:40:14.527Z,3.13
2018-04-26T10:42:48.282Z,3.67
2018-04-26T10:45:19.606Z,4.50
2018-04-26T10:47:51.026Z,3.33
2018-04-26T10:50:22.555Z,3.87
2018-04-26T10:52:55.248Z,3.83
2018-04-26T10:55:26.933Z,3.43
2018-04-26T10:57:58.276Z,2.70
2018-04-26T11:00:29.699Z,3.70
2018-04-26T11:03:01.878Z,3.30
2018-04-26T11:05:33.327Z,7.77
2018-04-26T11:08:04.799Z,2.97
2018-04-26T11:10:36.991Z,2.90
2018-04-26T11:13:08.407Z,2.70
2018-04-26T11:15:39.822Z,3.10
2018-04-26T11:18:11.295Z,3.30
2018-04-26T11:20:43.510Z,3.30
2018-04-26T11:23:14.863Z,3.17
2018-04-26T11:25:47.440Z,2.93
2018-04-26T11:28:18.835Z,2.73
2018-04-26T11:30:50.199Z,3.40
2018-04-26T11:33:21.583Z,3.43
2018-04-26T11:35:52.960Z,2.77
2018-04-26T11:38:24.793Z,3.00
2018-04-26T11:40:56.167Z,3.10
2018-04-26T11:43:27.696Z,3.93
2018-04-26T11:45:59.133Z,3.40
2018-04-26T11:48:30.519Z,4.37
2018-04-26T11:51:02.671Z,3.80
2018-04-26T11:53:34.131Z,3.97
2018-04-26T11:56:05.738Z,3.40
2018-04-26T11:58:37.152Z,3.73
2018-04-26T12:01:08.694Z,3.60
2018-04-26T12:03:40.903Z,3.90
2018-04-26T12:06:12.528Z,3.90
2018-04-26T12:08:43.942Z,4.27
2018-04-26T12:11:15.580Z,3.37
2018-04-26T12:13:47.306Z,3.50
2018-04-26T12:16:18.656Z,3.63
2018-04-26T12:18:50.646Z,3.37
2018-04-26T12:21:22.022Z,3.40
2018-04-26T12:23:54.574Z,3.97
2018-04-26T12:26:26.038Z,3.80
2018-04-26T12:28:57.383Z,3.40
2018-04-26T12:31:28.835Z,3.50
2018-04-26T12:34:00.278Z,3.57
2018-04-26T12:36:31.389Z,3.53
2018-04-26T12:39:02.743Z,2.93
2018-04-26T12:41:34.388Z,4.23
2018-04-26T12:44:05.903Z,3.60
2018-04-26T12:46:38.088Z,4.00
2018-04-26T12:49:10.375Z,4.07
2018-04-26T12:51:42.521Z,3.70
2018-04-26T12:54:14.676Z,4.47
2018-04-26T12:56:46.136Z,4.17
2018-04-26T12:59:18.277Z,3.40
2018-04-26T13:01:49.637Z,3.47
2018-04-26T13:04:21.347Z,4.23
2018-04-26T13:06:52.849Z,4.13
2018-04-26T13:09:24.590Z,3.67
2018-04-26T13:11:56.056Z,3.83
2018-04-26T13:14:27.890Z,3.57
2018-04-26T13:16:59.273Z,3.30
2018-04-26T13:19:30.731Z,3.53
2018-04-26T13:22:01.860Z,3.07
2018-04-26T13:24:33.443Z,2.80
2018-04-26T13:27:05.724Z,2.53
2018-04-26T13:29:38.303Z,2.03
2018-04-26T13:32:09.633Z,2.03
2018-04-26T13:34:41.789Z,1.70
2018-04-26T13:37:13.507Z,1.70
2018-04-26T13:39:45.043Z,1.30
2018-04-26T13:42:16.431Z,1.93
2018-04-26T13:44:47.851Z,1.93
2018-04-26T13:47:19.226Z,2.40
2018-04-26T13:49:50.995Z,2.33
2018-04-26T13:52:22.347Z,5.77
2018-04-26T13:54:53.707Z,2.77
2018-04-26T13:57:25.087Z,2.53
2018-04-26T13:59:57.198Z,6.83
2018-04-26T14:02:30.468Z,3.20
2018-04-26T14:05:02.588Z,3.13
2018-04-26T14:07:34.917Z,3.37
2018-04-26T14:10:07.034Z,3.00
2018-04-26T14:12:38.965Z,3.47
2018-04-26T14:15:10.143Z,3.57
2018-04-26T14:17:41.784Z,4.27
2018-04-26T14:20:13.305Z,2.87
2018-04-26T14:22:44.755Z,3.53
2018-04-26T14:25:16.121Z,4.17
2018-04-26T14:27:47.510Z,3.67
2018-04-26T14:30:19.788Z,3.10
2018-04-26T14:32:50.941Z,3.23
2018-04-26T14:35:22.291Z,2.93
2018-04-26T14:37:54.125Z,2.60
2018-04-26T14:40:25.477Z,2.10
2018-04-26T14:42:56.870Z,2.00
2018-04-26T14:45:28.428Z,1.57
2018-04-26T14:47:59.820Z,2.00
2018-04-26T14:50:31.145Z,1.60
2018-04-26T14:53:02.621Z,1.80
2018-04-26T14:55:33.787Z,2.37
2018-04-26T14:58:05.606Z,2.37
2018-04-26T15:00:36.973Z,2.50
2018-04-26T15:03:08.642Z,2.83
2018-04-26T15:05:41.702Z,2.73
2018-04-26T15:08:13.074Z,2.20
2018-04-26T15:10:44.596Z,2.17
2018-04-26T15:13:16.025Z,1.60
2018-04-26T15:15:48.211Z,1.33
2018-04-26T15:18:19.568Z,1.07
2018-04-26T15:20:51.885Z,1.30
2018-04-26T15:23:23.290Z,1.30
2018-04-26T15:25:55.661Z,1.40
2018-04-26T15:28:27.560Z,1.60
2018-04-26T15:30:59.838Z,2.07
2018-04-26T15:33:31.262Z,1.83
2018-04-26T15:36:02.669Z,2.07
2018-04-26T15:38:34.333Z,1.77
2018-04-26T15:41:05.596Z,2.20
2018-04-26T15:43:37.820Z,1.63
2018-04-26T15:46:09.298Z,1.67
2018-04-26T15:48:40.678Z,1.70
2018-04-26T15:51:13.049Z,1.60
2018-04-26T15:54:01.226Z,1.57
2018-04-26T15:56:59.166Z,1.47
2018-04-26T15:59:47.479Z,1.77
2018-04-26T16:05:51.122Z,1.50
2018-04-26T16:08:39.863Z,1.73
2018-04-26T16:11:28.083Z,1.60
2018-04-26T16:14:07.040Z,1.30
2018-04-26T16:16:50.361Z,1.90
2018-04-26T16:23:05.258Z,2.27
2018-04-26T16:25:53.632Z,1.90
2018-04-26T16:28:46.900Z,1.60
2018-04-26T16:31:41.409Z,2.00
2018-04-26T16:34:44.531Z,1.60
2018-04-26T16:37:38.097Z,1.77
2018-04-26T16:40:09.462Z,2.27
2018-04-26T16:42:40.926Z,2.20
2018-04-26T16:45:12.305Z,2.20
2018-04-26T16:47:43.720Z,2.03
2018-04-26T16:50:14.884Z,2.43
2018-04-26T16:52:46.297Z,2.33
2018-04-26T16:55:17.803Z,2.60
2018-04-26T16:57:49.155Z,2.30
2018-04-26T17:00:20.478Z,2.53
2018-04-26T17:02:52.066Z,2.37
2018-04-26T17:05:23.469Z,2.17
2018-04-26T17:07:54.900Z,2.67
2018-04-26T17:10:26.641Z,2.00
2018-04-26T17:12:58.019Z,2.40
2018-04-26T17:15:29.558Z,2.03
2018-04-26T17:18:01.051Z,2.47
2018-04-26T17:20:33.271Z,2.23
2018-04-26T17:23:05.232Z,2.30
2018-04-26T17:25:37.022Z,2.30
2018-04-26T17:28:08.420Z,2.40
2018-04-26T17:30:40.354Z,2.30
2018-04-26T17:33:11.758Z,2.60
2018-04-26T17:35:43.371Z,2.47
2018-04-26T17:38:15.485Z,2.10
2018-04-26T17:40:46.882Z,2.43
2018-04-26T17:43:18.246Z,2.57
2018-04-26T17:45:50.781Z,2.07
2018-04-26T17:48:22.742Z,2.03
2018-04-26T17:50:54.109Z,2.20
2018-04-26T17:53:25.550Z,2.00
2018-04-26T17:55:57.070Z,2.30
2018-04-26T17:58:28.326Z,2.60
2018-04-26T18:00:59.838Z,2.63
2018-04-26T18:03:31.546Z,2.00
2018-04-26T18:06:03.027Z,2.30
2018-04-26T18:08:35.331Z,2.27
2018-04-26T18:11:07.109Z,1.73
2018-04-26T18:13:38.611Z,2.13
2018-04-26T18:16:10.260Z,1.77
2018-04-26T18:18:42.419Z,1.80
2018-04-26T18:21:14.677Z,1.60
2018-04-26T18:23:45.924Z,1.90
2018-04-26T18:26:17.370Z,1.70
2018-04-26T18:28:49.274Z,1.40
2018-04-26T18:31:20.674Z,1.80
2018-04-26T18:33:52.499Z,1.60
2018-04-26T18:36:24.661Z,1.87
2018-04-26T18:38:56.071Z,1.63
2018-04-26T18:41:28.266Z,1.83
2018-04-26T18:43:59.987Z,2.33
2018-04-26T18:46:31.360Z,1.90
2018-04-26T18:49:02.730Z,2.00
2018-04-26T18:51:34.229Z,1.70
2018-04-26T18:54:06.502Z,2.07
2018-04-26T18:56:38.648Z,2.07
2018-04-26T18:59:10.377Z,2.17
2018-04-26T19:01:41.770Z,1.90
2018-04-26T19:04:13.922Z,1.73
2018-04-26T19:06:45.651Z,1.83
2018-04-26T19:09:17.182Z,2.37
2018-04-26T19:11:48.560Z,1.80
2018-04-26T19:14:20.024Z,1.90
2018-04-26T19:16:51.579Z,1.70
2018-04-26T19:19:22.910Z,1.80
2018-04-26T19:21:54.486Z,2.10
2018-04-26T19:24:25.866Z,2.20
2018-04-26T19:26:57.302Z,2.00
2018-04-26T19:29:29.448Z,2.00
2018-04-26T19:32:01.039Z,2.87
2018-04-26T19:34:32.528Z,2.63
2018-04-26T19:37:04.789Z,2.20
2018-04-26T19:39:36.599Z,2.00
2018-04-26T19:42:09.353Z,2.23
2018-04-26T19:44:41.231Z,2.47
2018-04-26T19:47:13.045Z,2.10
2018-04-26T19:49:45.138Z,2.50
2018-04-26T19:52:16.624Z,2.00
2018-04-26T19:54:48.497Z,2.67
2018-04-26T19:57:20.654Z,2.67
2018-04-26T19:59:52.801Z,2.17
2018-04-26T20:02:24.324Z,3.30
2018-04-26T20:04:55.975Z,2.30
2018-04-26T20:07:28.118Z,2.33
2018-04-26T20:10:00.266Z,2.43
2018-04-26T20:12:31.835Z,2.93
2018-04-26T20:15:03.782Z,2.80
2018-04-26T20:17:35.167Z,2.00
2018-04-26T20:20:05.588Z,2.53
2018-04-26T20:22:37.181Z,2.53
2018-04-26T20:25:08.625Z,2.20
2018-04-26T20:27:41.435Z,2.10
2018-04-26T20:30:12.817Z,2.10
2018-04-26T20:32:44.714Z,2.00
2018-04-26T20:35:16.243Z,2.10
2018-04-26T20:37:47.625Z,2.40
2018-04-26T20:40:18.980Z,2.57
2018-04-26T20:42:50.362Z,2.20
2018-04-26T20:45:21.686Z,2.80
2018-04-26T20:47:53.109Z,2.30
2018-04-26T20:50:25.303Z,2.37
2018-04-26T20:52:56.809Z,2.30
2018-04-26T20:55:29.122Z,2.20
2018-04-26T20:58:01.278Z,2.13
2018-04-26T21:00:32.662Z,2.30
2018-04-26T21:03:04.043Z,2.07
2018-04-26T21:05:36.407Z,2.37
2018-04-26T21:08:07.738Z,2.10
2018-04-26T21:10:39.062Z,2.30
2018-04-26T21:13:10.471Z,3.00
2018-04-26T21:15:41.842Z,2.47
2018-04-26T21:18:13.230Z,2.80
2018-04-26T21:20:44.621Z,2.60
2018-04-26T21:23:18.030Z,2.57
2018-04-26T21:25:49.377Z,2.93
2018-04-26T21:28:20.816Z,2.60
2018-04-26T21:30:52.128Z,2.27
2018-04-26T21:33:23.545Z,3.20
2018-04-26T21:35:55.639Z,2.80
2018-04-26T21:38:27.059Z,2.80
2018-04-26T21:40:59.219Z,2.50
2018-04-26T21:43:31.695Z,2.63
2018-04-26T21:46:03.864Z,2.50
2018-04-26T21:48:35.262Z,2.30
2018-04-26T21:51:12.067Z,2.80
2018-04-26T21:53:49.029Z,2.63
2018-04-26T21:56:25.979Z,2.67
2018-04-26T21:59:02.631Z,2.90
2018-04-26T22:01:40.011Z,2.57
2018-04-26T22:07:19.061Z,2.47
2018-04-26T22:09:50.584Z,2.87
2018-04-26T22:12:21.966Z,2.67
2018-04-26T22:14:53.459Z,2.67
2018-04-26T22:17:24.829Z,2.57
2018-04-26T22:19:56.225Z,3.10
2018-04-26T22:22:27.593Z,2.60
2018-04-26T22:24:59.341Z,2.40
2018-04-26T22:27:30.800Z,2.20
2018-04-26T22:30:02.462Z,2.83
2018-04-26T22:32:34.785Z,2.53
2018-04-26T22:35:06.128Z,2.40
2018-04-26T22:37:38.110Z,2.23
2018-04-26T22:40:09.629Z,2.60
2018-04-26T22:42:41.855Z,2.70
2018-04-26T22:45:13.189Z,2.83
2018-04-26T22:47:44.465Z,2.40
2018-04-26T22:50:15.828Z,2.23
2018-04-26T22:52:47.215Z,2.50
2018-04-26T22:55:19.467Z,2.13
2018-04-26T22:57:51.090Z,2.33
2018-04-26T23:00:21.815Z,2.47
2018-04-26T23:02:53.202Z,2.43
2018-04-26T23:05:24.538Z,2.40
2018-04-26T23:07:56.977Z,2.30
2018-04-26T23:10:28.348Z,2.77
2018-04-26T23:13:00.617Z,2.63
2018-04-26T23:15:32.794Z,2.43
2018-04-26T23:18:05.042Z,2.60
2018-04-26T23:20:36.371Z,2.67
2018-04-26T23:23:07.817Z,2.93
2018-04-26T23:25:39.185Z,2.33
2018-04-26T23:28:10.541Z,2.70
2018-04-26T23:30:42.377Z,2.70
2018-04-26T23:33:13.892Z,2.40
2018-04-26T23:35:45.231Z,3.07
2018-04-26T23:38:17.366Z,3.07
2018-04-26T23:40:49.725Z,3.10
2018-04-26T23:43:21.057Z,2.60
2018-04-26T23:45:52.441Z,2.60
2018-04-26T23:48:23.767Z,2.60
2018-04-26T23:50:55.141Z,3.67
2018-04-26T23:53:26.963Z,3.00
2018-04-26T23:55:59.057Z,3.07
2018-04-26T23:58:31.894Z,3.47
